createdAt,value
2018-09-04T00:00:36.019Z,7.62
2018-09-04T00:03:04.243Z,7.72
2018-09-04T00:05:32.445Z,7.17
2018-09-04T00:08:00.687Z,8.60
2018-09-04T00:10:28.915Z,9.60
2018-09-04T00:12:57.167Z,8.25
2018-09-04T00:15:25.424Z,9.85
2018-09-04T00:17:53.651Z,8.63
2018-09-04T00:20:21.900Z,7.37
2018-09-04T00:22:50.194Z,9.25
2018-09-04T00:25:18.419Z,10.20
2018-09-04T00:27:46.638Z,8.35
2018-09-04T00:30:14.842Z,9.00
2018-09-04T00:32:43.055Z,10.13
2018-09-04T00:35:11.382Z,10.50
2018-09-04T00:37:39.734Z,9.53
2018-09-04T00:40:07.966Z,10.53
2018-09-04T00:42:36.220Z,10.50
2018-09-04T00:45:04.542Z,11.63
2018-09-04T00:47:32.796Z,10.03
2018-09-04T00:50:01.007Z,11.12
2018-09-04T00:52:29.232Z,11.43
2018-09-04T00:54:59.727Z,11.08
2018-09-04T00:57:28.013Z,11.35
2018-09-04T00:59:56.254Z,10.73
2018-09-04T01:02:24.475Z,11.55
2018-09-04T01:04:52.692Z,13.15
2018-09-04T01:07:20.940Z,11.17
2018-09-04T01:09:49.173Z,10.72
2018-09-04T01:12:17.408Z,10.72
2018-09-04T01:14:45.651Z,11.85
2018-09-04T01:17:15.132Z,12.68
2018-09-04T01:19:43.389Z,11.35
2018-09-04T01:22:11.600Z,11.22
2018-09-04T01:24:39.871Z,11.60
2018-09-04T01:27:08.148Z,12.10
2018-09-04T01:29:36.416Z,12.58
2018-09-04T01:32:04.811Z,14.57
2018-09-04T01:34:33.051Z,14.80
2018-09-04T01:37:01.472Z,16.40
2018-09-04T01:39:29.707Z,15.83
2018-09-04T01:41:57.923Z,17.57
2018-09-04T01:44:26.176Z,15.18
2018-09-04T01:46:54.467Z,16.93
2018-09-04T01:49:23.135Z,17.73
2018-09-04T01:51:51.377Z,16.60
2018-09-04T01:54:19.612Z,16.25
2018-09-04T01:56:47.867Z,17.30
2018-09-04T01:59:16.135Z,15.83
2018-09-04T02:01:44.380Z,17.93
2018-09-04T02:04:12.644Z,17.53
2018-09-04T02:06:40.928Z,17.73
2018-09-04T02:09:09.476Z,17.70
2018-09-04T02:11:37.856Z,18.27
2018-09-04T02:14:06.161Z,18.05
2018-09-04T02:16:34.392Z,17.48
2018-09-04T02:19:02.628Z,18.60
2018-09-04T02:21:30.857Z,17.75
2018-09-04T02:23:59.095Z,19.05
2018-09-04T02:26:27.336Z,21.68
2018-09-04T02:28:56.000Z,18.87
2018-09-04T02:31:24.246Z,21.60
2018-09-04T02:33:52.459Z,19.67
2018-09-04T02:36:20.745Z,20.37
2018-09-04T02:38:48.952Z,20.57
2018-09-04T02:41:17.203Z,20.60
2018-09-04T02:43:45.445Z,21.65
2018-09-04T02:46:14.359Z,21.70
2018-09-04T02:48:42.883Z,21.16
2018-09-04T02:51:11.193Z,21.20
2018-09-04T02:53:39.488Z,23.50
2018-09-04T02:56:07.763Z,23.02
2018-09-04T02:58:36.024Z,23.90
2018-09-04T03:01:04.300Z,22.40
2018-09-04T03:03:32.521Z,24.83
2018-09-04T03:06:00.768Z,22.87
2018-09-04T03:08:29.024Z,24.05
2018-09-04T03:10:57.284Z,24.63
2018-09-04T03:13:25.624Z,20.90
2018-09-04T03:15:53.845Z,23.32
2018-09-04T03:18:22.118Z,22.52
2018-09-04T03:20:50.769Z,23.50
2018-09-04T03:23:19.028Z,23.55
2018-09-04T03:25:47.256Z,25.60
2018-09-04T03:28:15.507Z,25.75
2018-09-04T03:30:44.014Z,24.70
2018-09-04T03:33:12.348Z,28.10
2018-09-04T03:35:40.664Z,27.10
2018-09-04T03:38:08.939Z,25.95
2018-09-04T03:40:37.240Z,26.30
2018-09-04T03:43:06.173Z,30.67
2018-09-04T03:45:34.421Z,32.98
2018-09-04T03:48:02.929Z,33.23
2018-09-04T03:50:31.183Z,32.03
2018-09-04T03:52:59.400Z,30.45
2018-09-04T03:55:27.884Z,32.10
2018-09-04T03:57:56.240Z,31.82
2018-09-04T04:00:24.487Z,30.12
2018-09-04T04:02:52.730Z,26.62
2018-09-04T04:05:20.945Z,30.23
2018-09-04T04:07:49.217Z,29.00
2018-09-04T04:10:17.455Z,27.98
2018-09-04T04:12:45.723Z,27.37
2018-09-04T04:15:13.974Z,27.53
2018-09-04T04:17:42.453Z,26.55
2018-09-04T04:20:10.740Z,27.32
2018-09-04T04:22:39.007Z,28.92
2018-09-04T04:25:07.250Z,24.23
2018-09-04T04:27:35.518Z,27.37
2018-09-04T04:30:03.764Z,26.65
2018-09-04T04:32:32.038Z,28.17
2018-09-04T04:35:00.287Z,24.43
2018-09-04T04:37:28.547Z,22.85
2018-09-04T04:39:56.830Z,24.90
2018-09-04T04:42:25.120Z,24.70
2018-09-04T04:44:53.376Z,23.20
2018-09-04T04:47:27.107Z,25.00
2018-09-04T04:49:55.324Z,22.75
2018-09-04T04:52:23.548Z,23.25
2018-09-04T04:54:56.660Z,24.23
2018-09-04T04:57:24.952Z,21.87
2018-09-04T04:59:53.508Z,21.10
2018-09-04T05:02:21.995Z,24.27
2018-09-04T05:04:50.212Z,22.45
2018-09-04T05:07:18.788Z,21.37
2018-09-04T05:09:47.049Z,21.73
2018-09-04T05:12:15.431Z,24.10
2018-09-04T05:14:43.646Z,23.27
2018-09-04T05:17:11.884Z,22.42
2018-09-04T05:19:40.153Z,21.10
2018-09-04T05:22:08.428Z,23.00
2018-09-04T05:24:36.735Z,23.18
2018-09-04T05:27:04.927Z,22.10
2018-09-04T05:29:33.165Z,20.57
2018-09-04T05:32:06.788Z,22.67
2018-09-04T05:34:35.041Z,20.95
2018-09-04T05:37:07.308Z,20.92
2018-09-04T05:39:35.588Z,21.52
2018-09-04T05:42:09.686Z,20.82
2018-09-04T05:44:37.938Z,19.00
2018-09-04T05:47:06.247Z,20.10
2018-09-04T05:49:35.087Z,19.48
2018-09-04T05:52:03.333Z,37.08
2018-09-04T05:54:31.579Z,22.75
2018-09-04T05:56:59.885Z,19.12
2018-09-04T05:59:28.119Z,19.12
2018-09-04T06:01:56.351Z,19.75
2018-09-04T06:04:24.629Z,19.42
2018-09-04T06:06:52.877Z,18.62
2018-09-04T06:09:21.134Z,20.30
2018-09-04T06:11:49.355Z,19.37
2018-09-04T06:14:17.557Z,18.00
2018-09-04T06:16:45.809Z,17.85
2018-09-04T06:19:14.110Z,16.90
2018-09-04T06:21:42.391Z,17.67
2018-09-04T06:24:10.665Z,17.52
2018-09-04T06:26:38.905Z,16.48
2018-09-04T06:29:07.135Z,17.45
2018-09-04T06:31:35.358Z,16.30
2018-09-04T06:34:03.673Z,14.65
2018-09-04T06:36:31.946Z,16.35
2018-09-04T06:39:00.095Z,16.23
2018-09-04T06:41:28.356Z,16.70
2018-09-04T06:43:56.602Z,14.83
2018-09-04T06:46:24.893Z,14.80
2018-09-04T06:48:53.089Z,14.60
2018-09-04T06:51:21.331Z,13.58
2018-09-04T06:53:49.543Z,13.43
2018-09-04T06:56:17.799Z,13.62
2018-09-04T06:58:46.048Z,13.78
2018-09-04T07:01:14.304Z,13.28
2018-09-04T07:03:42.635Z,12.88
2018-09-04T07:06:11.093Z,13.10
2018-09-04T07:08:39.245Z,10.90
2018-09-04T07:11:07.508Z,13.32
2018-09-04T07:13:35.749Z,11.50
2018-09-04T07:16:04.216Z,10.85
2018-09-04T07:18:32.484Z,11.90
2018-09-04T07:21:00.719Z,11.33
2018-09-04T07:23:28.935Z,10.28
2018-09-04T07:25:57.180Z,10.63
2018-09-04T07:28:25.476Z,10.07
2018-09-04T07:30:53.724Z,10.00
2018-09-04T07:33:21.983Z,8.88
2018-09-04T07:35:50.200Z,10.03
2018-09-04T07:38:18.584Z,10.98
2018-09-04T07:40:47.181Z,10.13
2018-09-04T07:43:15.416Z,11.00
2018-09-04T07:45:43.675Z,11.53
2018-09-04T07:53:09.259Z,8.83
2018-09-04T07:55:37.462Z,8.85
2018-09-04T07:58:05.728Z,9.95
2018-09-04T08:00:33.996Z,8.83
2018-09-04T08:03:02.230Z,8.85
2018-09-04T08:05:31.298Z,10.75
2018-09-04T08:07:59.603Z,9.83
2018-09-04T08:10:27.837Z,11.08
2018-09-04T08:12:56.064Z,10.32
2018-09-04T08:15:24.315Z,11.22
2018-09-04T08:17:52.571Z,11.12
2018-09-04T08:20:20.893Z,11.22
2018-09-04T08:22:49.043Z,9.85
2018-09-04T08:25:17.279Z,10.77
2018-09-04T08:27:45.559Z,10.35
2018-09-04T08:30:13.780Z,12.20
2018-09-04T08:32:42.050Z,9.35
2018-09-04T08:35:10.296Z,10.65
2018-09-04T08:37:38.557Z,10.18
2018-09-04T08:40:06.845Z,11.65
2018-09-04T08:42:35.128Z,11.15
2018-09-04T08:45:03.399Z,11.80
2018-09-04T08:47:31.965Z,10.70
2018-09-04T08:50:00.216Z,10.98
2018-09-04T08:52:28.452Z,10.80
2018-09-04T08:54:56.688Z,11.90
2018-09-04T08:57:24.914Z,11.15
2018-09-04T08:59:53.209Z,11.10
2018-09-04T09:02:21.450Z,10.23
2018-09-04T09:04:49.701Z,10.82
2018-09-04T09:07:17.964Z,9.95
2018-09-04T09:09:46.194Z,9.48
2018-09-04T09:12:14.410Z,9.63
2018-09-04T09:14:42.693Z,10.03
2018-09-04T09:17:10.943Z,11.45
2018-09-04T09:19:39.153Z,10.15
2018-09-04T09:22:07.411Z,10.63
2018-09-04T09:24:35.620Z,9.83
2018-09-04T09:27:03.865Z,10.08
2018-09-04T09:29:32.633Z,9.74
2018-09-04T09:32:00.926Z,10.00
2018-09-04T09:34:29.182Z,10.48
2018-09-04T09:36:57.501Z,11.25
2018-09-04T09:39:25.738Z,9.45
2018-09-04T09:41:53.979Z,9.38
2018-09-04T09:44:22.251Z,11.22
2018-09-04T09:46:50.518Z,10.53
2018-09-04T09:49:18.773Z,9.80
2018-09-04T09:51:47.048Z,10.13
2018-09-04T09:54:15.273Z,9.60
2018-09-04T09:56:43.547Z,10.40
2018-09-04T09:59:11.784Z,9.95
2018-09-04T10:01:45.367Z,8.45
2018-09-04T10:04:13.647Z,9.65
2018-09-04T10:06:41.824Z,9.18
2018-09-04T10:09:10.044Z,8.98
2018-09-04T10:11:38.312Z,9.00
2018-09-04T10:14:07.624Z,8.33
2018-09-04T10:16:35.827Z,9.03
2018-09-04T10:19:04.132Z,7.55
2018-09-04T10:21:33.434Z,8.55
2018-09-04T10:24:01.670Z,10.82
2018-09-04T10:26:30.031Z,8.40
2018-09-04T10:28:58.196Z,9.00
2018-09-04T10:31:26.448Z,10.85
2018-09-04T10:33:54.698Z,8.65
2018-09-04T10:36:22.939Z,9.25
2018-09-04T10:38:55.560Z,8.33
2018-09-04T10:41:23.875Z,7.78
2018-09-04T10:43:52.584Z,7.78
2018-09-04T10:46:20.848Z,7.83
2018-09-04T10:48:49.071Z,7.50
2018-09-04T10:51:17.283Z,7.70
2018-09-04T10:53:45.523Z,6.08
2018-09-04T10:56:13.779Z,7.70
2018-09-04T10:58:42.023Z,6.55
2018-09-04T11:01:10.389Z,6.90
2018-09-04T11:03:38.694Z,7.13
2018-09-04T11:06:07.039Z,6.92
2018-09-04T11:08:36.700Z,6.70
2018-09-04T11:11:04.926Z,8.55
2018-09-04T11:13:33.180Z,7.00
2018-09-04T11:16:01.482Z,7.28
2018-09-04T11:18:29.758Z,9.35
2018-09-04T11:20:57.992Z,6.95
2018-09-04T11:23:26.268Z,6.55
2018-09-04T11:25:54.475Z,6.40
2018-09-04T11:28:22.736Z,7.15
2018-09-04T11:30:51.887Z,7.62
2018-09-04T11:33:20.144Z,6.25
2018-09-04T11:35:48.420Z,5.65
2018-09-04T11:38:16.880Z,6.80
2018-09-04T11:40:45.273Z,5.87
2018-09-04T11:43:13.506Z,8.15
2018-09-04T11:45:41.782Z,5.40
2018-09-04T11:48:14.359Z,6.55
2018-09-04T11:50:43.072Z,7.70
2018-09-04T11:53:11.354Z,6.50
2018-09-04T11:55:39.587Z,6.83
2018-09-04T11:58:07.879Z,5.17
2018-09-04T12:00:45.775Z,7.03
2018-09-04T12:03:15.304Z,4.40
2018-09-04T12:05:43.646Z,4.87
2018-09-04T12:08:12.005Z,5.80
2018-09-04T12:10:40.691Z,5.67
2018-09-04T12:13:08.992Z,6.75
2018-09-04T12:15:39.388Z,4.63
2018-09-04T12:18:08.609Z,6.20
2018-09-04T12:20:43.577Z,4.58
2018-09-04T12:23:13.095Z,5.85
2018-09-04T12:25:41.987Z,6.57
2018-09-04T12:28:10.259Z,6.45
2018-09-04T12:30:38.539Z,5.62
2018-09-04T12:33:06.839Z,4.42
2018-09-04T12:35:35.361Z,6.50
2018-09-04T12:38:05.209Z,6.08
2018-09-04T12:40:33.459Z,5.30
2018-09-04T12:43:02.828Z,4.63
2018-09-04T12:45:38.512Z,3.98
2018-09-04T12:48:06.937Z,5.92
2018-09-04T12:50:35.759Z,6.47
2018-09-04T12:53:04.060Z,5.17
2018-09-04T12:55:32.428Z,5.20
2018-09-04T12:58:00.678Z,4.95
2018-09-04T13:00:29.175Z,5.05
2018-09-04T13:02:57.405Z,4.15
2018-09-04T13:05:25.871Z,5.55
2018-09-04T13:07:54.108Z,3.83
2018-09-04T13:10:22.344Z,4.03
2018-09-04T13:12:50.571Z,5.55
2018-09-04T13:15:18.828Z,4.08
2018-09-04T13:17:47.052Z,4.97
2018-09-04T13:20:15.297Z,4.67
2018-09-04T13:22:43.540Z,5.17
2018-09-04T13:25:12.448Z,4.45
2018-09-04T13:27:41.025Z,3.33
2018-09-04T13:30:09.268Z,3.60
2018-09-04T13:32:37.547Z,5.15
2018-09-04T13:35:05.845Z,4.97
2018-09-04T13:37:34.136Z,5.75
2018-09-04T13:40:03.450Z,4.28
2018-09-04T13:42:32.792Z,5.00
2018-09-04T13:45:01.056Z,4.35
2018-09-04T13:47:30.696Z,5.15
2018-09-04T13:49:59.656Z,4.30
2018-09-04T13:52:29.052Z,5.15
2018-09-04T13:54:57.469Z,3.50
2018-09-04T13:57:26.444Z,5.50
2018-09-04T13:59:54.720Z,3.63
2018-09-04T14:02:23.145Z,3.73
2018-09-04T14:04:51.381Z,3.33
2018-09-04T14:07:20.712Z,3.77
2018-09-04T14:09:48.993Z,3.72
2018-09-04T14:12:17.245Z,3.75
2018-09-04T14:14:45.496Z,3.60
2018-09-04T14:17:17.427Z,3.80
2018-09-04T14:19:45.832Z,5.05
2018-09-04T14:22:14.429Z,4.27
2018-09-04T14:24:42.705Z,5.95
2018-09-04T14:27:10.963Z,4.45
2018-09-04T14:29:54.362Z,4.30
2018-09-04T14:32:07.565Z,4.03
2018-09-04T14:34:35.936Z,5.37
2018-09-04T14:37:04.398Z,4.12
2018-09-04T14:39:32.569Z,3.83
2018-09-04T14:42:00.925Z,4.62
2018-09-04T14:44:29.220Z,3.92
2018-09-04T14:46:57.483Z,6.08
2018-09-04T14:49:25.815Z,4.53
2018-09-04T14:51:54.065Z,5.05
2018-09-04T14:54:22.325Z,5.42
2018-09-04T14:56:50.744Z,4.75
2018-09-04T14:59:18.989Z,4.40
2018-09-04T15:01:47.903Z,4.25
2018-09-04T15:04:16.144Z,3.95
2018-09-04T15:06:44.399Z,4.80
2018-09-04T15:09:12.716Z,4.05
2018-09-04T15:11:40.991Z,4.10
2018-09-04T15:14:09.264Z,4.25
2018-09-04T15:16:37.834Z,4.00
2018-09-04T15:19:06.195Z,4.30
2018-09-04T15:21:34.495Z,4.40
2018-09-04T15:24:03.234Z,4.08
2018-09-04T15:26:31.535Z,4.70
2018-09-04T15:28:59.796Z,5.05
2018-09-04T15:31:28.109Z,4.05
2018-09-04T15:33:56.300Z,3.50
2018-09-04T15:36:24.547Z,3.47
2018-09-04T15:38:52.796Z,4.17
2018-09-04T15:41:21.056Z,5.10
2018-09-04T15:43:49.336Z,4.45
2018-09-04T15:46:17.660Z,5.05
2018-09-04T15:48:50.097Z,4.00
2018-09-04T15:51:18.987Z,5.05
2018-09-04T15:53:47.263Z,3.12
2018-09-04T15:56:15.595Z,3.60
2018-09-04T15:58:43.968Z,3.35
2018-09-04T16:01:12.267Z,3.50
2018-09-04T16:03:40.541Z,3.62
2018-09-04T16:06:08.944Z,3.67
2018-09-04T16:08:37.232Z,3.25
2018-09-04T16:11:05.619Z,3.67
2018-09-04T16:13:34.020Z,5.28
2018-09-04T16:16:02.468Z,4.83
2018-09-04T16:18:30.779Z,4.20
2018-09-04T16:20:59.140Z,4.45
2018-09-04T16:23:27.479Z,4.58
2018-09-04T16:25:55.903Z,3.58
2018-09-04T16:28:24.257Z,3.93
2018-09-04T16:30:52.549Z,5.50
2018-09-04T16:33:21.545Z,3.52
2018-09-04T16:35:49.851Z,4.12
2018-09-04T16:38:18.172Z,3.72
2018-09-04T16:40:46.493Z,4.12
2018-09-04T16:43:14.830Z,6.53
2018-09-04T16:45:43.108Z,4.08
2018-09-04T16:48:11.396Z,3.45
2018-09-04T16:50:39.779Z,5.92
2018-09-04T16:53:08.091Z,4.42
2018-09-04T16:55:36.392Z,5.12
2018-09-04T16:58:05.077Z,4.75
2018-09-04T17:00:33.480Z,5.22
2018-09-04T17:03:01.821Z,4.77
2018-09-04T17:05:30.084Z,4.13
2018-09-04T17:07:58.352Z,4.78
2018-09-04T17:10:26.881Z,5.50
2018-09-04T17:12:55.183Z,5.45
2018-09-04T17:15:23.456Z,4.58
2018-09-04T17:17:51.800Z,4.15
2018-09-04T17:20:20.079Z,4.03
2018-09-04T17:22:48.375Z,5.40
2018-09-04T17:25:16.686Z,4.08
2018-09-04T17:27:44.991Z,4.97
2018-09-04T17:30:13.282Z,4.33
2018-09-04T17:32:41.603Z,3.60
2018-09-04T17:35:09.888Z,4.80
2018-09-04T17:37:38.709Z,3.90
2018-09-04T17:40:07.027Z,4.08
2018-09-04T17:42:35.404Z,4.47
2018-09-04T17:45:03.833Z,4.85
2018-09-04T17:47:32.379Z,4.60
2018-09-04T17:50:01.696Z,4.12
2018-09-04T17:52:30.871Z,4.00
2018-09-04T17:54:59.276Z,4.50
2018-09-04T17:57:27.566Z,5.55
2018-09-04T17:59:57.834Z,5.08
2018-09-04T18:02:26.184Z,3.75
2018-09-04T18:04:54.526Z,4.28
2018-09-04T18:07:22.830Z,4.20
2018-09-04T18:09:51.099Z,4.25
2018-09-04T18:12:19.400Z,7.70
2018-09-04T18:14:47.695Z,3.80
2018-09-04T18:17:16.018Z,4.53
2018-09-04T18:19:44.404Z,6.33
2018-09-04T18:22:12.792Z,4.70
2018-09-04T18:24:41.293Z,4.83
2018-09-04T18:27:09.654Z,7.12
2018-09-04T18:29:38.789Z,7.80
2018-09-04T18:32:07.304Z,9.68
2018-09-04T18:34:35.700Z,8.38
2018-09-04T18:37:04.169Z,8.28
2018-09-04T18:39:32.506Z,8.40
2018-09-04T18:42:00.898Z,7.72
2018-09-04T18:44:29.293Z,8.95
2018-09-04T18:46:57.831Z,9.13
2018-09-04T18:49:26.217Z,9.28
2018-09-04T18:51:54.448Z,7.23
2018-09-04T18:54:22.866Z,7.08
2018-09-04T18:56:51.241Z,8.40
2018-09-04T19:04:43.905Z,11.63
2018-09-04T19:07:13.496Z,12.35
2018-09-04T19:09:42.903Z,17.95
2018-09-04T19:12:11.670Z,9.80
2018-09-04T19:14:40.641Z,11.73
2018-09-04T19:17:09.051Z,11.38
2018-09-04T19:19:38.467Z,9.95
2018-09-04T19:22:07.148Z,9.07
2018-09-04T19:24:35.478Z,8.78
2018-09-04T19:27:04.306Z,8.07
2018-09-04T19:29:33.171Z,7.17
2018-09-04T19:32:01.503Z,8.85
2018-09-04T19:34:29.887Z,8.50
2018-09-04T19:36:58.509Z,7.37
2018-09-04T19:39:27.146Z,6.40
2018-09-04T19:41:55.440Z,6.72
2018-09-04T19:44:24.757Z,7.60
2018-09-04T19:46:53.057Z,6.03
2018-09-04T19:49:21.378Z,6.53
2018-09-04T19:51:49.736Z,8.58
2018-09-04T19:54:18.090Z,7.50
2018-09-04T19:56:47.027Z,6.53
2018-09-04T19:59:15.620Z,6.45
2018-09-04T20:01:44.144Z,6.92
2018-09-04T20:04:12.501Z,8.23
2018-09-04T20:06:40.994Z,6.30
2018-09-04T20:09:09.299Z,7.30
2018-09-04T20:11:37.604Z,8.23
2018-09-04T20:14:06.184Z,7.67
2018-09-04T20:16:34.627Z,8.35
2018-09-04T20:19:03.342Z,7.10
2018-09-04T20:21:31.757Z,8.18
2018-09-04T20:24:00.137Z,7.87
2018-09-04T20:26:28.595Z,7.37
2018-09-04T20:28:56.907Z,10.20
2018-09-04T20:31:25.225Z,7.30
2018-09-04T20:33:53.531Z,7.83
2018-09-04T20:36:21.832Z,8.43
2018-09-04T20:38:50.138Z,8.00
2018-09-04T20:41:18.924Z,8.00
2018-09-04T20:43:47.252Z,7.45
2018-09-04T20:46:15.668Z,7.40
2018-09-04T20:48:44.305Z,9.85
2018-09-04T20:51:13.160Z,10.08
2018-09-04T20:53:41.438Z,7.90
2018-09-04T20:56:09.754Z,7.95
2018-09-04T20:58:49.608Z,8.93
2018-09-04T21:01:29.404Z,7.37
2018-09-04T21:04:09.092Z,8.73
2018-09-04T21:06:43.208Z,11.15
2018-09-04T21:09:19.479Z,7.37
2018-09-04T21:11:47.724Z,8.83
2018-09-04T21:14:15.988Z,8.63
2018-09-04T21:16:44.289Z,10.30
2018-09-04T21:19:13.456Z,7.97
2018-09-04T21:21:41.697Z,7.92
2018-09-04T21:24:09.955Z,9.40
2018-09-04T21:26:38.216Z,9.05
2018-09-04T21:29:06.455Z,8.68
2018-09-04T21:31:34.747Z,12.10
2018-09-04T21:34:02.952Z,8.13
2018-09-04T21:36:31.199Z,8.48
2018-09-04T21:38:59.923Z,8.95
2018-09-04T21:41:28.181Z,9.38
2018-09-04T21:43:56.442Z,9.43
2018-09-04T21:46:24.680Z,9.55
2018-09-04T21:48:52.917Z,9.30
2018-09-04T21:51:21.120Z,9.23
2018-09-04T21:53:49.333Z,10.88
2018-09-04T21:56:17.815Z,9.05
2018-09-04T21:58:46.084Z,9.90
2018-09-04T22:01:14.342Z,10.40
2018-09-04T22:03:43.247Z,9.83
2018-09-04T22:06:11.465Z,8.98
2018-09-04T22:08:39.757Z,8.60
2018-09-04T22:11:07.995Z,11.00
2018-09-04T22:13:36.264Z,10.38
2018-09-04T22:16:04.528Z,10.88
2018-09-04T22:18:32.751Z,10.18
2018-09-04T22:21:01.015Z,10.55
2018-09-04T22:23:30.499Z,11.93
2018-09-04T22:25:59.331Z,12.18
2018-09-04T22:28:28.879Z,12.15
2018-09-04T22:30:58.540Z,12.22
2018-09-04T22:33:28.277Z,13.50
2018-09-04T22:35:58.270Z,12.95
2018-09-04T22:38:27.883Z,13.20
2018-09-04T22:40:57.316Z,14.05
2018-09-04T22:43:25.612Z,14.28
2018-09-04T22:45:53.874Z,17.77
2018-09-04T22:48:22.108Z,14.10
2018-09-04T22:50:55.786Z,14.75
2018-09-04T22:53:24.286Z,15.67
2018-09-04T22:55:53.091Z,13.93
2018-09-04T22:58:21.296Z,15.18
2018-09-04T23:00:49.547Z,15.10
2018-09-04T23:03:17.804Z,16.00
2018-09-04T23:05:46.073Z,14.43
2018-09-04T23:08:15.148Z,15.15
2018-09-04T23:10:43.407Z,16.45
2018-09-04T23:13:11.640Z,15.90
2018-09-04T23:15:42.376Z,17.07
2018-09-04T23:18:10.769Z,15.83
2018-09-04T23:20:39.051Z,16.10
2018-09-04T23:23:07.276Z,16.32
2018-09-04T23:25:35.535Z,16.45
2018-09-04T23:28:03.784Z,16.75
2018-09-04T23:30:32.020Z,16.02
2018-09-04T23:33:00.277Z,15.03
2018-09-04T23:35:28.565Z,15.20
2018-09-04T23:37:56.806Z,16.07
2018-09-04T23:40:25.047Z,15.07
2018-09-04T23:42:53.273Z,15.37
2018-09-04T23:45:21.499Z,16.73
2018-09-04T23:47:49.748Z,16.57
2018-09-04T23:50:18.511Z,16.67
2018-09-04T23:52:46.732Z,15.77
2018-09-04T23:55:14.968Z,16.23
2018-09-04T23:57:43.197Z,17.13
